Time;durP1;ratioP1;P1;durP2;ratioP2;P2;SDS_P1;SDS_P2;PMS_P1;PMS_P2;Temp;Humidity;BMP_temperature;BMP_pressure;BME280_temperature;BME280_humidity;BME280_pressure;Samples;Min_cycle;Max_cycle;Signal;HPM_P1;HPM_P2
2024/05/03 00:00:08;;;;;;;1.60;0.57;;;13.00;99.90;;;;;;5158999;27;20078;-92
2024/05/03 00:02:35;;;;;;;3.92;0.90;;;13.20;99.90;;;;;;5158664;27;20146;-92
2024/05/03 00:05:02;;;;;;;1.70;0.60;;;13.10;99.90;;;;;;5158518;27;20132;-92
2024/05/03 00:07:30;;;;;;;1.00;0.50;;;13.00;99.90;;;;;;5185798;27;20055;-92
2024/05/03 00:09:57;;;;;;;4.65;0.50;;;13.10;99.90;;;;;;5185391;27;20396;-93
2024/05/03 00:12:24;;;;;;;3.90;0.73;;;13.00;99.90;;;;;;5158171;27;20099;-92
2024/05/03 00:14:51;;;;;;;4.43;0.73;;;13.00;99.90;;;;;;5171966;27;20060;-92
2024/05/03 00:17:18;;;;;;;1.55;0.40;;;13.00;99.90;;;;;;5185340;27;20514;-93
2024/05/03 00:19:45;;;;;;;2.60;0.75;;;12.90;99.90;;;;;;5185372;27;20080;-91
2024/05/03 00:22:12;;;;;;;3.20;0.82;;;12.90;99.90;;;;;;5164014;27;20104;-93
2024/05/03 00:24:39;;;;;;;2.25;0.52;;;12.90;99.90;;;;;;5184995;27;20104;-94
2024/05/03 00:27:06;;;;;;;5.20;0.70;;;12.80;99.90;;;;;;5158166;27;20082;-93
2024/05/03 00:29:33;;;;;;;1.90;0.80;;;12.80;99.90;;;;;;5185190;27;20108;-94
2024/05/03 00:32:00;;;;;;;7.82;0.90;;;12.70;99.90;;;;;;5157959;27;20065;-93
2024/05/03 00:34:27;;;;;;;2.35;0.80;;;12.60;99.90;;;;;;5185297;27;20382;-91
2024/05/03 00:36:54;;;;;;;2.35;0.65;;;12.60;99.90;;;;;;5185201;27;20095;-91
2024/05/03 00:39:21;;;;;;;7.85;0.95;;;12.60;99.90;;;;;;5184929;27;20515;-94
2024/05/03 00:41:49;;;;;;;3.22;0.65;;;12.60;99.90;;;;;;5185114;27;20147;-94
2024/05/03 00:44:16;;;;;;;1.40;0.57;;;12.60;99.90;;;;;;5212212;27;20124;-93
2024/05/03 00:46:43;;;;;;;1.00;0.50;;;12.60;99.90;;;;;;5211883;27;20416;-93
2024/05/03 00:49:10;;;;;;;1.27;0.70;;;12.70;99.90;;;;;;5156687;27;20071;-93
2024/05/03 00:51:37;;;;;;;2.33;0.63;;;12.80;99.90;;;;;;5185470;27;20416;-92
2024/05/03 00:54:05;;;;;;;2.08;0.80;;;12.80;99.90;;;;;;5183947;27;20068;-94
2024/05/03 00:56:35;;;;;;;0.93;0.50;;;12.70;99.90;;;;;;5185926;27;20063;-92
2024/05/03 00:59:03;;;;;;;3.58;0.57;;;12.60;99.90;;;;;;5187456;27;20065;-93
2024/05/03 01:01:31;;;;;;;3.47;0.60;;;12.60;99.90;;;;;;5184848;27;20088;-92
2024/05/03 01:03:58;;;;;;;1.48;0.85;;;12.60;99.90;;;;;;5195723;27;20154;-93
2024/05/03 01:06:27;;;;;;;2.78;0.60;;;12.50;99.90;;;;;;5184980;27;20521;-92
2024/05/03 01:08:54;;;;;;;5.68;0.70;;;12.50;99.90;;;;;;5211943;27;20146;-93
2024/05/03 01:11:21;;;;;;;3.28;0.73;;;12.50;99.90;;;;;;5184664;27;20087;-93
2024/05/03 01:13:49;;;;;;;3.97;1.00;;;12.40;99.90;;;;;;5185191;27;20082;-92
2024/05/03 01:16:16;;;;;;;1.05;0.57;;;12.50;99.90;;;;;;5184634;27;20068;-92
2024/05/03 01:18:43;;;;;;;1.35;0.60;;;12.50;99.90;;;;;;5184823;27;20059;-92
2024/05/03 01:21:11;;;;;;;3.58;0.75;;;12.50;99.90;;;;;;5157568;27;20500;-91
2024/05/03 01:23:39;;;;;;;5.80;0.80;;;12.50;99.90;;;;;;5182907;27;20064;-92
2024/05/03 01:26:06;;;;;;;1.92;0.70;;;12.50;99.90;;;;;;5184454;27;20063;-92
2024/05/03 01:28:33;;;;;;;1.63;0.60;;;12.40;99.90;;;;;;5184471;27;20096;-91
2024/05/03 01:31:00;;;;;;;1.15;0.50;;;12.40;99.90;;;;;;5184565;27;20065;-92
2024/05/03 01:33:27;;;;;;;1.08;0.52;;;12.40;99.90;;;;;;5184376;27;20087;-92
2024/05/03 01:35:55;;;;;;;2.47;0.60;;;12.50;99.90;;;;;;5184669;27;20399;-93
2024/05/03 01:38:22;;;;;;;1.80;0.70;;;12.40;99.90;;;;;;5157885;27;20532;-92
2024/05/03 01:40:51;;;;;;;2.95;0.70;;;12.50;99.90;;;;;;5184169;27;20075;-91
2024/05/03 01:43:18;;;;;;;1.77;0.60;;;12.50;99.90;;;;;;5157523;27;20142;-94
2024/05/03 01:45:45;;;;;;;2.40;0.70;;;12.50;99.90;;;;;;5184005;27;20096;-92
2024/05/03 01:48:13;;;;;;;2.00;0.60;;;12.50;99.90;;;;;;5184559;27;20083;-92
2024/05/03 01:50:40;;;;;;;3.45;0.80;;;12.50;99.90;;;;;;5183496;27;20079;-92
2024/05/03 01:53:07;;;;;;;3.45;0.77;;;12.40;99.90;;;;;;5184473;27;20060;-92
2024/05/03 01:55:36;;;;;;;3.17;0.98;;;12.50;99.90;;;;;;5184311;27;20059;-93
2024/05/03 01:58:03;;;;;;;2.70;0.80;;;12.50;99.90;;;;;;5183651;27;20072;-92
2024/05/03 02:00:30;;;;;;;3.28;0.73;;;12.50;99.90;;;;;;5156985;27;20072;-92
2024/05/03 02:02:57;;;;;;;1.85;0.70;;;12.50;99.90;;;;;;5184145;27;20376;-93
2024/05/03 02:05:24;;;;;;;3.88;0.80;;;12.40;99.90;;;;;;5157073;27;20060;-94
2024/05/03 02:07:51;;;;;;;1.73;0.90;;;12.30;99.90;;;;;;5138011;27;20069;-93
2024/05/03 02:10:18;;;;;;;4.10;1.00;;;12.30;99.90;;;;;;5151391;27;20061;-92
2024/05/03 02:12:47;;;;;;;1.30;0.90;;;12.30;99.90;;;;;;5151398;27;20124;-92
2024/05/03 02:15:14;;;;;;;2.58;1.13;;;12.30;99.90;;;;;;5151059;27;20079;-94
2024/05/03 02:17:41;;;;;;;2.00;0.90;;;12.30;99.90;;;;;;5191852;27;20095;-92
2024/05/03 02:20:09;;;;;;;7.82;1.30;;;12.40;99.90;;;;;;5172727;27;20072;-92
2024/05/03 02:22:36;;;;;;;2.03;1.00;;;12.40;99.90;;;;;;5183303;27;20095;-92
2024/05/03 02:25:03;;;;;;;1.60;1.08;;;12.40;99.90;;;;;;5185674;27;20055;-92
2024/05/03 02:27:30;;;;;;;2.90;0.85;;;12.30;99.90;;;;;;5156559;27;20536;-92
2024/05/03 02:29:57;;;;;;;1.92;1.05;;;12.30;99.90;;;;;;5183433;27;20078;-91
2024/05/03 02:32:24;;;;;;;1.70;0.98;;;12.30;99.90;;;;;;5156755;27;20599;-92
2024/05/03 02:34:51;;;;;;;2.17;0.90;;;12.40;99.90;;;;;;5185331;27;20506;-92
2024/05/03 02:37:18;;;;;;;2.13;1.10;;;12.30;99.90;;;;;;5181523;27;20521;-93
2024/05/03 02:39:45;;;;;;;2.53;0.93;;;12.40;99.90;;;;;;5154016;27;20124;-92
2024/05/03 02:42:12;;;;;;;3.53;1.25;;;12.30;99.90;;;;;;5127453;27;20532;-91
2024/05/03 02:44:40;;;;;;;4.82;1.30;;;12.30;99.90;;;;;;5154074;27;20148;-92
2024/05/03 02:47:07;;;;;;;2.05;1.17;;;12.30;99.90;;;;;;5166873;27;20158;-92
2024/05/03 02:49:34;;;;;;;1.90;1.17;;;12.30;99.90;;;;;;5186627;27;20242;-92
2024/05/03 02:52:01;;;;;;;4.03;1.33;;;12.30;99.90;;;;;;5215705;27;20064;-93
2024/05/03 02:54:28;;;;;;;3.20;1.17;;;12.30;99.90;;;;;;5163462;27;20576;-93
2024/05/03 02:56:55;;;;;;;4.30;1.50;;;12.30;99.90;;;;;;5127403;27;20057;-92
2024/05/03 02:59:22;;;;;;;2.33;1.10;;;12.30;99.90;;;;;;5159430;27;20067;-92
2024/05/03 03:01:49;;;;;;;1.77;1.17;;;12.40;99.90;;;;;;5159499;27;20109;-93
2024/05/03 03:04:16;;;;;;;5.85;1.20;;;12.30;99.90;;;;;;5185551;27;20159;-92
2024/05/03 03:06:43;;;;;;;1.95;1.02;;;12.30;99.90;;;;;;5159850;27;20512;-90
2024/05/03 03:09:11;;;;;;;2.65;1.20;;;12.30;99.90;;;;;;5186204;27;20079;-91
2024/05/03 03:11:39;;;;;;;2.13;1.00;;;12.30;99.90;;;;;;5186078;27;20064;-91
2024/05/03 03:14:08;;;;;;;2.25;1.10;;;12.30;99.90;;;;;;5186402;27;20060;-93
2024/05/03 03:16:38;;;;;;;2.08;1.10;;;12.30;99.90;;;;;;5159066;27;20089;-91
2024/05/03 03:19:06;;;;;;;3.20;1.40;;;12.20;99.90;;;;;;5186045;27;20057;-91
2024/05/03 03:21:43;;;;;;;2.70;1.33;;;12.20;99.90;;;;;;5153380;27;20073;-93
2024/05/03 03:24:12;;;;;;;3.42;1.42;;;12.10;99.90;;;;;;5153325;27;20090;-91
2024/05/03 03:26:40;;;;;;;3.10;1.40;;;12.10;99.90;;;;;;5153701;27;20107;-94
2024/05/03 03:29:07;;;;;;;3.25;1.33;;;12.00;99.90;;;;;;5153479;27;20090;-93
2024/05/03 03:31:44;;;;;;;2.78;1.27;;;12.00;1.00;;;;;;5185183;27;20086;-93
2024/05/03 03:34:14;;;;;;;3.15;1.42;;;12.10;99.90;;;;;;5185736;27;20068;-90
2024/05/03 03:36:42;;;;;;;2.78;1.20;;;12.10;99.90;;;;;;5186375;27;20063;-92
2024/05/03 03:39:10;;;;;;;3.85;1.40;;;12.10;99.90;;;;;;5185962;27;20061;-94
2024/05/03 03:41:41;;;;;;;3.85;1.35;;;12.10;99.90;;;;;;5175352;27;20069;-94
2024/05/03 03:44:18;;;;;;;4.40;1.30;;;12.10;99.90;;;;;;5180434;27;20061;-90
2024/05/03 03:46:45;;;;;;;2.22;1.35;;;12.10;99.90;;;;;;5179216;27;20139;-91
2024/05/03 03:49:13;;;;;;;3.72;1.27;;;12.20;99.90;;;;;;5180273;27;20056;-93
2024/05/03 03:51:42;;;;;;;3.00;1.00;;;12.20;99.90;;;;;;5208329;27;20095;-90
2024/05/03 03:54:10;;;;;;;3.55;1.35;;;12.20;99.90;;;;;;5185427;27;20115;-91
2024/05/03 03:56:40;;;;;;;4.70;1.40;;;12.20;99.90;;;;;;5158792;27;20065;-90
2024/05/03 03:59:08;;;;;;;2.83;1.67;;;12.20;99.90;;;;;;5185703;27;20079;-90
2024/05/03 04:01:36;;;;;;;4.50;1.77;;;12.20;99.90;;;;;;5184681;27;20098;-92
2024/05/03 04:04:03;;;;;;;3.08;1.42;;;12.20;99.90;;;;;;5185792;27;20517;-92
2024/05/03 04:06:30;;;;;;;2.78;1.58;;;12.20;99.90;;;;;;5185384;27;20061;-94
2024/05/03 04:08:57;;;;;;;2.65;1.60;;;12.20;99.90;;;;;;5186071;27;20060;-91
2024/05/03 04:11:24;;;;;;;4.53;1.60;;;12.20;99.90;;;;;;5158531;27;20068;-94
2024/05/03 04:13:51;;;;;;;3.50;2.10;;;12.20;99.90;;;;;;5159465;27;20059;-91
2024/05/03 04:16:19;;;;;;;2.97;1.65;;;12.20;99.90;;;;;;5185876;27;20067;-91
2024/05/03 04:18:46;;;;;;;4.50;1.60;;;12.10;99.90;;;;;;5185937;27;20086;-93
2024/05/03 04:21:13;;;;;;;5.43;1.70;;;12.10;99.90;;;;;;5184673;27;20094;-92
2024/05/03 04:23:41;;;;;;;4.70;2.00;;;12.00;99.90;;;;;;5185095;27;20147;-91
2024/05/03 04:26:09;;;;;;;2.47;1.50;;;12.10;99.90;;;;;;5212320;27;20057;-93
2024/05/03 04:28:41;;;;;;;2.67;1.23;;;12.10;99.90;;;;;;5185187;27;20060;-92
2024/05/03 04:31:08;;;;;;;2.85;1.42;;;12.10;99.90;;;;;;5185033;27;20065;-92
2024/05/03 04:33:36;;;;;;;2.97;1.15;;;12.20;99.90;;;;;;5152683;27;20070;-92
2024/05/03 04:36:03;;;;;;;1.98;1.10;;;12.20;99.90;;;;;;5152609;27;20083;-91
2024/05/03 04:38:31;;;;;;;3.97;1.20;;;12.30;99.90;;;;;;5179420;27;20129;-91
2024/05/03 04:40:58;;;;;;;2.35;1.40;;;12.30;99.90;;;;;;5179033;27;20134;-91
2024/05/03 04:43:27;;;;;;;3.80;1.40;;;12.30;99.90;;;;;;5201745;27;20067;-91
2024/05/03 04:45:56;;;;;;;;;;;12.30;99.90;;;;;;5186509;27;20069;-92
2024/05/03 04:48:23;;;;;;;3.70;1.30;;;12.20;99.90;;;;;;5213805;27;20367;-93
2024/05/03 04:50:50;;;;;;;3.33;1.70;;;12.30;99.90;;;;;;5184880;27;20069;-94
2024/05/03 04:53:18;;;;;;;4.22;1.40;;;12.30;99.90;;;;;;5186452;27;20068;-92
2024/05/03 04:55:45;;;;;;;4.22;1.20;;;12.20;99.90;;;;;;5188035;27;20075;-93
2024/05/03 04:58:12;;;;;;;6.20;1.58;;;12.30;99.90;;;;;;5179679;27;20087;-92
2024/05/03 05:00:40;;;;;;;3.08;1.40;;;12.30;99.90;;;;;;5212068;27;20396;-92
2024/05/03 05:03:07;;;;;;;2.08;1.20;;;12.40;99.90;;;;;;5213079;27;20080;-91
2024/05/03 05:05:35;;;;;;;2.20;1.10;;;12.40;99.90;;;;;;5185069;27;20059;-91
2024/05/03 05:08:02;;;;;;;2.83;1.23;;;12.40;99.90;;;;;;5184978;27;20085;-93
2024/05/03 05:10:29;;;;;;;3.03;1.27;;;12.50;99.90;;;;;;5184627;27;20059;-92
2024/05/03 05:13:00;;;;;;;4.28;1.38;;;12.50;99.90;;;;;;5158073;27;20067;-92
2024/05/03 05:15:28;;;;;;;1.98;1.02;;;12.60;99.90;;;;;;5184619;27;20057;-92
2024/05/03 05:17:55;;;;;;;2.40;0.90;;;12.70;99.90;;;;;;5158116;27;20061;-92
2024/05/03 05:20:24;;;;;;;4.15;1.42;;;12.70;99.90;;;;;;5157505;27;20060;-92
2024/05/03 05:22:52;;;;;;;5.90;1.60;;;12.70;99.90;;;;;;5184060;27;20150;-90
2024/05/03 05:25:19;;;;;;;3.53;1.20;;;12.70;99.90;;;;;;5189563;27;20060;-90
2024/05/03 05:27:46;;;;;;;2.72;1.17;;;12.60;99.90;;;;;;5161725;27;20092;-92
2024/05/03 05:30:13;;;;;;;5.43;1.45;;;12.70;99.90;;;;;;5158771;27;20147;-92
2024/05/03 05:32:40;;;;;;;3.65;1.30;;;12.70;99.90;;;;;;5184669;27;20110;-92
2024/05/03 05:35:08;;;;;;;3.15;1.30;;;12.80;99.90;;;;;;5151393;27;20522;-93
2024/05/03 05:37:37;;;;;;;2.95;1.40;;;12.90;99.90;;;;;;5179108;27;20475;-92
2024/05/03 05:40:09;;;;;;;2.63;1.30;;;13.00;99.90;;;;;;5178896;27;20393;-92
2024/05/03 05:42:36;;;;;;;2.67;1.33;;;13.10;99.90;;;;;;5178661;27;20061;-94
2024/05/03 05:45:04;;;;;;;1.45;1.00;;;13.20;99.90;;;;;;5184293;27;20069;-92
2024/05/03 05:47:31;;;;;;;2.95;1.10;;;13.30;99.90;;;;;;5156852;27;20131;-91
2024/05/03 05:49:58;;;;;;;4.13;1.00;;;13.40;99.90;;;;;;5184360;27;20603;-92
2024/05/03 05:52:25;;;;;;;2.58;1.30;;;13.40;99.90;;;;;;5157118;27;20090;-90
2024/05/03 05:54:52;;;;;;;5.13;1.52;;;13.50;99.90;;;;;;5200362;27;20150;-92
2024/05/03 05:57:19;;;;;;;2.88;1.80;;;13.60;99.90;;;;;;5184066;27;20071;-92
2024/05/03 05:59:46;;;;;;;2.35;1.25;;;13.70;99.90;;;;;;5156917;27;20075;-92
2024/05/03 06:02:13;;;;;;;3.35;1.60;;;13.80;99.90;;;;;;5183707;27;20075;-92
2024/05/03 06:04:40;;;;;;;6.32;1.50;;;13.80;99.90;;;;;;5183747;27;20077;-92
2024/05/03 06:07:09;;;;;;;7.20;1.40;;;13.90;99.90;;;;;;5184017;27;20539;-92
2024/05/03 06:09:36;;;;;;;3.72;1.65;;;14.00;99.90;;;;;;5212295;27;20079;-92
2024/05/03 06:12:03;;;;;;;4.07;1.60;;;14.00;99.90;;;;;;5187064;27;20082;-93
2024/05/03 06:14:30;;;;;;;6.45;1.75;;;14.00;99.90;;;;;;5187325;27;20090;-91
2024/05/03 06:16:57;;;;;;;4.68;1.90;;;14.10;99.90;;;;;;5187856;27;20148;-91
2024/05/03 06:19:25;;;;;;;5.38;2.47;;;14.30;99.90;;;;;;5190386;27;20068;-91
2024/05/03 06:21:52;;;;;;;4.95;2.72;;;14.40;99.90;;;;;;5187829;27;20151;-92
2024/05/03 06:24:19;;;;;;;5.40;3.22;;;14.40;99.90;;;;;;5160441;27;20064;-92
2024/05/03 06:26:51;;;;;;;6.65;3.88;;;14.50;99.90;;;;;;5159970;27;20381;-92
2024/05/03 06:29:18;;;;;;;5.20;2.90;;;14.60;99.90;;;;;;5186403;27;20474;-92
2024/05/03 06:31:48;;;;;;;5.93;3.50;;;14.70;99.90;;;;;;5187014;27;20124;-93
2024/05/03 06:34:17;;;;;;;5.93;3.15;;;14.70;99.90;;;;;;5186571;27;20056;-93
2024/05/03 06:36:45;;;;;;;5.10;2.95;;;14.70;99.90;;;;;;5187463;27;20060;-93
2024/05/03 06:39:14;;;;;;;7.93;3.00;;;14.80;99.90;;;;;;5188323;27;20544;-93
2024/05/03 06:41:41;;;;;;;4.40;3.10;;;14.80;99.90;;;;;;5161995;27;20071;-92
2024/05/03 06:44:09;;;;;;;6.63;3.17;;;14.80;99.90;;;;;;5160667;27;20091;-93
2024/05/03 06:46:36;;;;;;;6.30;3.58;;;14.90;99.90;;;;;;5186446;27;20143;-92
2024/05/03 06:49:03;;;;;;;6.50;3.58;;;15.00;99.90;;;;;;5186659;27;20143;-95
2024/05/03 06:51:30;;;;;;;6.93;4.10;;;15.00;99.90;;;;;;5158551;27;20076;-94
2024/05/03 06:53:58;;;;;;;6.90;3.75;;;15.10;99.90;;;;;;5158545;27;20530;-93
2024/05/03 06:56:27;;;;;;;5.50;3.92;;;15.10;99.90;;;;;;5178751;27;20140;-93
2024/05/03 06:59:10;;;;;;;6.25;4.50;;;15.20;99.90;;;;;;5212008;27;20163;-94
2024/05/03 07:01:37;;;;;;;7.53;4.13;;;15.30;99.70;;;;;;5185610;27;20091;-93
2024/05/03 07:04:06;;;;;;;8.18;4.97;;;15.30;95.90;;;;;;5185161;27;20082;-93
2024/05/03 07:06:33;;;;;;;5.85;4.25;;;15.30;71.80;;;;;;5185341;27;20067;-93
2024/05/03 07:09:01;;;;;;;7.85;4.30;;;15.40;95.20;;;;;;5185261;27;20072;-93
2024/05/03 07:11:28;;;;;;;7.57;4.40;;;15.40;90.00;;;;;;5185666;27;20095;-92
2024/05/03 07:13:56;;;;;;;7.65;4.13;;;15.50;82.90;;;;;;5186347;27;20059;-90
2024/05/03 07:16:23;;;;;;;6.28;3.90;;;15.50;61.10;;;;;;5167270;27;20067;-92
2024/05/03 07:18:50;;;;;;;6.40;3.30;;;15.50;78.80;;;;;;5159187;27;20060;-94
2024/05/03 07:21:18;;;;;;;4.57;3.25;;;15.60;62.10;;;;;;5157076;27;20059;-93
2024/05/03 07:23:45;;;;;;;6.13;3.15;;;15.70;26.80;;;;;;5188733;27;20127;-92
2024/05/03 07:26:12;;;;;;;6.65;3.03;;;15.70;1.00;;;;;;5187562;27;20068;-94
2024/05/03 07:28:40;;;;;;;6.80;3.40;;;15.70;1.00;;;;;;5185655;27;20060;-93
2024/05/03 07:31:10;;;;;;;5.68;3.13;;;15.80;16.70;;;;;;5189671;27;20086;-95
2024/05/03 07:33:49;;;;;;;5.97;3.25;;;15.80;10.10;;;;;;5193561;27;20065;-96
2024/05/03 07:36:39;;;;;;;5.30;3.22;;;15.80;10.80;;;;;;5190899;27;20079;-95
2024/05/03 07:39:10;;;;;;;5.07;3.10;;;15.90;1.00;;;;;;5191708;27;20086;-95
2024/05/03 07:41:43;;;;;;;6.32;3.55;;;16.00;1.00;;;;;;5215321;27;20090;-95
2024/05/03 07:44:30;;;;;;;7.28;3.78;;;16.00;1.00;;;;;;5186034;27;20120;-92
2024/05/03 07:46:59;;;;;;;5.15;3.50;;;16.00;1.00;;;;;;5169697;27;20075;-92
2024/05/03 07:49:27;;;;;;;5.68;3.17;;;16.10;1.00;;;;;;5185157;27;20082;-92
2024/05/03 07:51:54;;;;;;;4.55;3.00;;;16.20;1.00;;;;;;5184736;27;20063;-92
2024/05/03 07:54:21;;;;;;;4.28;2.03;;;16.30;1.00;;;;;;5158231;27;20112;-92
2024/05/03 07:56:48;;;;;;;5.78;2.50;;;16.30;1.00;;;;;;5165418;27;20109;-94
2024/05/03 07:59:15;;;;;;;5.13;3.05;;;16.30;1.00;;;;;;5178705;27;20152;-93
2024/05/03 08:01:42;;;;;;;7.32;3.00;;;16.40;1.00;;;;;;5167781;27;20064;-93
2024/05/03 08:04:10;;;;;;;8.80;3.53;;;16.40;1.00;;;;;;5157968;27;20059;-94
2024/05/03 08:06:37;;;;;;;7.43;3.30;;;16.40;1.00;;;;;;5174225;27;20084;-93
2024/05/03 08:09:04;;;;;;;6.63;3.30;;;16.50;1.00;;;;;;5184662;27;20059;-93
2024/05/03 08:11:36;;;;;;;5.35;3.13;;;16.40;1.00;;;;;;5184763;27;20069;-93
2024/05/03 08:14:07;;;;;;;6.80;3.15;;;16.40;1.00;;;;;;5184705;27;20069;-93
2024/05/03 08:16:34;;;;;;;3.97;2.80;;;16.50;1.00;;;;;;5184191;27;20095;-95
2024/05/03 08:19:01;;;;;;;4.13;2.33;;;16.60;1.00;;;;;;5184757;27;20060;-92
2024/05/03 08:21:42;;;;;;;4.65;2.53;;;16.70;1.00;;;;;;5184945;27;20068;-92
2024/05/03 08:24:09;;;;;;;5.88;2.83;;;16.90;1.00;;;;;;5184636;27;20065;-93
2024/05/03 08:26:37;;;;;;;7.03;3.20;;;17.00;1.00;;;;;;5175263;27;20079;-93
2024/05/03 08:29:04;;;;;;;6.68;3.42;;;17.00;1.00;;;;;;5184692;27;20068;-92
2024/05/03 08:31:37;;;;;;;7.78;3.00;;;17.20;1.00;;;;;;5159134;27;20090;-93
2024/05/03 08:34:15;;;;;;;6.90;3.15;;;17.40;1.00;;;;;;5185312;27;20426;-92
2024/05/03 08:36:45;;;;;;;6.90;2.60;;;17.50;1.00;;;;;;5185397;27;20521;-93
2024/05/03 08:39:12;;;;;;;5.55;2.50;;;17.50;1.00;;;;;;5213439;27;20061;-93
2024/05/03 08:42:09;;;;;;;5.30;2.10;;;17.60;1.00;;;;;;5186172;27;20068;-92
2024/05/03 08:44:42;;;;;;;6.15;2.90;;;17.50;1.00;;;;;;5184355;27;20092;-93
2024/05/03 08:47:17;;;;;;;10.05;2.08;;;17.60;1.00;;;;;;5178694;27;20076;-93
2024/05/03 08:49:59;;;;;;;5.38;2.33;;;17.80;1.00;;;;;;5152326;27;20082;-93
2024/05/03 08:52:29;;;;;;;5.82;2.08;;;17.90;1.00;;;;;;5178047;27;20064;-94
2024/05/03 08:55:01;;;;;;;7.30;1.60;;;18.00;1.00;;;;;;5151518;27;20196;-94
2024/05/03 08:57:32;;;;;;;6.57;1.73;;;18.20;1.00;;;;;;5184560;27;20068;-94
2024/05/03 09:00:01;;;;;;;4.93;1.55;;;18.40;1.00;;;;;;5212100;27;20138;-93
2024/05/03 09:02:35;;;;;;;9.05;1.60;;;18.20;1.00;;;;;;5157709;27;20071;-95
2024/05/03 09:05:02;;;;;;;3.92;1.70;;;18.20;1.00;;;;;;5183797;27;20067;-94
2024/05/03 09:07:40;;;;;;;3.00;1.00;;;18.40;1.00;;;;;;5200050;22;20539;-93
2024/05/03 09:10:12;;;;;;;4.13;1.55;;;18.60;1.00;;;;;;5189951;27;20451;-93
2024/05/03 09:12:43;;;;;;;7.20;2.25;;;18.80;1.00;;;;;;5156825;27;20068;-93
2024/05/03 09:15:10;;;;;;;4.97;2.17;;;18.90;1.00;;;;;;5151576;27;20112;-94
2024/05/03 09:17:39;;;;;;;5.93;2.13;;;19.00;1.00;;;;;;5150179;27;20479;-92
2024/05/03 09:20:10;;;;;;;4.65;2.08;;;18.80;1.00;;;;;;5158703;27;20059;-91
2024/05/03 09:22:40;;;;;;;5.63;2.40;;;18.70;1.00;;;;;;5183482;27;20067;-93
2024/05/03 09:25:16;;;;;;;4.55;2.22;;;18.90;1.00;;;;;;5153315;27;20075;-94
2024/05/03 09:27:44;;;;;;;4.57;2.20;;;18.90;1.00;;;;;;5183698;27;20090;-94
2024/05/03 09:30:11;;;;;;;2.97;1.58;;;19.10;1.00;;;;;;5156741;27;20112;-93
2024/05/03 09:32:38;;;;;;;2.90;1.42;;;19.20;1.00;;;;;;5157561;27;20086;-93
2024/05/03 09:35:05;;;;;;;3.75;1.80;;;19.00;1.00;;;;;;5156442;27;20067;-93
2024/05/03 09:37:32;;;;;;;4.07;1.60;;;19.00;1.00;;;;;;5151074;27;20068;-91
2024/05/03 09:40:00;;;;;;;2.55;1.10;;;19.10;1.00;;;;;;5124900;27;20385;-93
2024/05/03 09:42:27;;;;;;;3.30;0.90;;;19.20;1.00;;;;;;5124385;27;20065;-92
2024/05/03 09:44:54;;;;;;;1.00;0.65;;;19.30;1.00;;;;;;5151101;27;20521;-94
2024/05/03 09:47:21;;;;;;;2.20;0.80;;;19.50;99.90;;;;;;5165650;27;20091;-94
2024/05/03 09:50:10;;;;;;;2.97;0.80;;;19.70;99.90;;;;;;5157458;27;20083;-92
2024/05/03 09:52:44;;;;;;;3.03;0.88;;;19.80;99.90;;;;;;5186429;27;20079;-93
2024/05/03 09:55:19;;;;;;;2.30;0.73;;;19.80;99.90;;;;;;5167146;27;20077;-94
2024/05/03 09:57:47;;;;;;;1.65;0.80;;;19.70;99.90;;;;;;5148830;27;20067;-93
2024/05/03 10:00:22;;;;;;;3.45;0.75;;;19.80;99.90;;;;;;5157526;27;20596;-96
2024/05/03 10:03:07;;;;;;;1.05;0.55;;;19.70;99.90;;;;;;5156837;27;20060;-94
2024/05/03 10:05:38;;;;;;;2.30;0.60;;;19.80;99.90;;;;;;5156813;27;20144;-95
2024/05/03 10:08:06;;;;;;;1.50;0.70;;;20.00;99.90;;;;;;5149405;27;20436;-94
2024/05/03 10:10:34;;;;;;;4.43;0.80;;;20.10;99.90;;;;;;5151292;27;20158;-95
2024/05/03 10:13:03;;;;;;;2.67;0.80;;;20.20;99.90;;;;;;5151517;27;20061;-94
2024/05/03 10:15:32;;;;;;;3.83;0.70;;;20.40;99.90;;;;;;5150884;27;20061;-95
2024/05/03 10:18:03;;;;;;;1.58;0.70;;;20.50;99.90;;;;;;5140764;27;20069;-94
2024/05/03 10:20:33;;;;;;;2.17;0.73;;;20.50;99.90;;;;;;5124623;27;20068;-93
2024/05/03 10:23:01;;;;;;;2.05;1.10;;;20.40;99.90;;;;;;5150475;27;20159;-93
2024/05/03 10:25:29;;;;;;;1.27;0.80;;;20.60;99.90;;;;;;5124172;27;20070;-93
2024/05/03 10:28:07;;;;;;;2.03;0.90;;;20.80;99.90;;;;;;5172169;27;20567;-94
2024/05/03 10:30:38;;;;;;;2.08;0.80;;;21.00;99.90;;;;;;5156477;27;20069;-92
2024/05/03 10:33:20;;;;;;;4.70;1.20;;;21.20;99.90;;;;;;5156789;27;20060;-92
2024/05/03 10:35:49;;;;;;;2.70;1.40;;;21.40;99.90;;;;;;5182585;27;20187;-93
2024/05/03 10:38:20;;;;;;;2.58;1.30;;;21.50;99.90;;;;;;5151244;27;20076;-93
2024/05/03 10:40:49;;;;;;;3.70;1.70;;;21.60;99.90;;;;;;5151804;27;20080;-93
2024/05/03 10:43:21;;;;;;;3.03;1.40;;;21.10;99.90;;;;;;5126319;27;20069;-94
2024/05/03 10:45:49;;;;;;;3.47;1.38;;;21.30;99.90;;;;;;5151675;27;20064;-93
2024/05/03 10:48:16;;;;;;;5.55;1.58;;;21.40;99.90;;;;;;5149051;27;20165;-94
2024/05/03 10:50:43;;;;;;;3.25;1.60;;;21.40;99.90;;;;;;5155297;27;20132;-95
2024/05/03 10:53:13;;;;;;;3.05;1.48;;;21.30;99.90;;;;;;5156190;27;20071;-93
2024/05/03 10:55:40;;;;;;;3.60;2.03;;;20.90;99.90;;;;;;5157357;27;20067;-93
2024/05/03 10:58:09;;;;;;;4.95;2.03;;;20.60;99.90;;;;;;5153389;27;20091;-93
2024/05/03 11:00:37;;;;;;;3.60;1.95;;;20.60;99.90;;;;;;5131521;27;20171;-94
2024/05/03 11:03:04;;;;;;;3.72;1.60;;;20.60;99.90;;;;;;5140614;27;20069;-95
2024/05/03 11:05:31;;;;;;;4.63;1.92;;;20.50;99.90;;;;;;5126919;27;20062;-94
2024/05/03 11:07:58;;;;;;;4.95;2.13;;;20.40;99.90;;;;;;5147416;27;20068;-94
2024/05/03 11:10:26;;;;;;;2.78;1.80;;;20.20;99.90;;;;;;5187516;27;20388;-94
2024/05/03 11:12:53;;;;;;;3.90;2.30;;;20.10;99.90;;;;;;5158750;27;20099;-94
2024/05/03 11:15:20;;;;;;;6.68;2.55;;;20.10;99.90;;;;;;5159825;27;20438;-94
2024/05/03 11:17:51;;;;;;;2.80;1.90;;;20.20;99.90;;;;;;5158252;27;20102;-93
2024/05/03 11:20:18;;;;;;;6.05;2.10;;;20.20;99.90;;;;;;5159322;27;20078;-95
2024/05/03 11:22:46;;;;;;;5.68;1.88;;;20.30;99.90;;;;;;5159285;27;20508;-93
2024/05/03 11:25:16;;;;;;;4.38;1.80;;;20.20;99.90;;;;;;5162449;27;20068;-94
2024/05/03 11:27:45;;;;;;;4.07;1.77;;;20.30;99.90;;;;;;5181240;27;20090;-94
2024/05/03 11:30:19;;;;;;;3.28;1.60;;;20.10;99.90;;;;;;5179648;27;20061;-93
2024/05/03 11:32:51;;;;;;;5.32;1.95;;;20.00;99.90;;;;;;5151958;27;20095;-94
2024/05/03 11:35:21;;;;;;;3.28;1.60;;;20.00;99.90;;;;;;5154002;27;20115;-94
2024/05/03 11:37:52;;;;;;;3.50;1.58;;;20.00;99.90;;;;;;5171586;27;20559;-95
2024/05/03 11:40:19;;;;;;;2.92;1.35;;;20.00;99.90;;;;;;5159162;27;20060;-94
2024/05/03 11:42:47;;;;;;;3.33;1.45;;;20.00;99.90;;;;;;5158571;27;20060;-94
2024/05/03 11:45:23;;;;;;;5.72;1.70;;;20.00;99.90;;;;;;5186257;27;20141;-93
2024/05/03 11:47:51;;;;;;;3.85;1.30;;;20.00;99.90;;;;;;5173082;27;20076;-94
2024/05/03 11:50:18;;;;;;;3.92;1.65;;;20.00;99.90;;;;;;5158847;27;20068;-94
2024/05/03 11:52:47;;;;;;;3.72;1.80;;;20.00;99.90;;;;;;5158971;27;20083;-95
2024/05/03 11:55:15;;;;;;;3.83;1.65;;;20.00;99.90;;;;;;5185878;27;20056;-93
2024/05/03 11:57:42;;;;;;;4.53;1.75;;;20.10;99.90;;;;;;5163453;27;20072;-94
2024/05/03 12:00:10;;;;;;;2.95;1.23;;;20.10;99.90;;;;;;5126582;27;20057;-94
2024/05/03 12:02:37;;;;;;;2.42;1.20;;;20.10;99.90;;;;;;5153415;27;20061;-93
2024/05/03 12:05:05;;;;;;;2.05;1.10;;;20.00;99.90;;;;;;5126801;27;20061;-93
2024/05/03 12:07:32;;;;;;;4.85;1.27;;;20.10;99.90;;;;;;5133137;27;20080;-95
2024/05/03 12:09:59;;;;;;;2.17;1.17;;;20.20;99.90;;;;;;5127517;27;20068;-94
2024/05/03 12:12:29;;;;;;;2.60;1.10;;;20.20;99.90;;;;;;5152830;27;20084;-94
2024/05/03 12:14:58;;;;;;;4.13;1.42;;;20.20;99.90;;;;;;5153022;27;20060;-94
2024/05/03 12:17:25;;;;;;;15.15;2.22;;;20.10;99.90;;;;;;5158865;27;20064;-93
2024/05/03 12:19:52;;;;;;;4.63;1.73;;;19.90;99.90;;;;;;5131081;27;20175;-94
2024/05/03 12:22:20;;;;;;;10.27;2.03;;;19.90;99.90;;;;;;5158640;27;20063;-93
2024/05/03 12:24:49;;;;;;;11.88;2.40;;;19.80;99.90;;;;;;5158262;27;20064;-93
2024/05/03 12:27:16;;;;;;;10.80;2.35;;;19.60;1.00;;;;;;5153464;27;20095;-94
2024/05/03 12:29:43;;;;;;;3.45;1.77;;;19.50;1.00;;;;;;5126092;27;20082;-94
2024/05/03 12:32:10;;;;;;;4.80;2.20;;;19.40;1.00;;;;;;5152899;27;20105;-96
2024/05/03 12:34:39;;;;;;;10.27;2.63;;;19.30;1.00;;;;;;5149947;27;20077;-94
2024/05/03 12:37:06;;;;;;;8.38;2.50;;;19.20;1.00;;;;;;5184934;27;20146;-94
2024/05/03 12:39:33;;;;;;;6.15;2.40;;;19.20;1.00;;;;;;5159648;27;20068;-92
2024/05/03 12:42:19;;;;;;;5.15;2.10;;;19.10;1.00;;;;;;5185822;27;20380;-93
2024/05/03 12:44:46;;;;;;;4.78;2.00;;;19.10;1.00;;;;;;5186187;27;20087;-94
2024/05/03 12:47:13;;;;;;;13.52;2.50;;;19.10;1.00;;;;;;5184876;27;20060;-94
2024/05/03 12:49:40;;;;;;;4.57;1.73;;;19.10;1.00;;;;;;5158606;27;20077;-96
2024/05/03 12:56:04;;;;;;;4.30;1.92;;;19.00;1.00;;;;;;5086664;28;20069;-94
2024/05/03 12:58:33;;;;;;;4.90;2.08;;;19.00;1.00;;;;;;5128616;27;20159;-95